Aeroporto :
LOGIN :

Iscrizione | Disclaimer

   EN    FR    IT 

 










Sommario :    VFR   VFR Marginale   IFR   IFR Intensivo   IFR Molto Intensivo
Visibilità : 
Base nubi : 
>= 8 km
>= 3000ft
5 / 8 km
1000 / 3000 ft
1500m / 5 km
500 / 1000 ft
800 / 1500m
200 / 500 ft
< 800m
< 200 ft
Simboli :   Temporali  Nebbia  Neve Forte  Precipitazioni Forti  Vento > 20 kt
SIGMETs :   Varie  Temporali  Ghiacco  Turbolenza  Onda orograficha  Ceneri Vulcaniche






- Altitudine del aeroporto : 121 ft
- Codice IATA : HUY


EGNJ - Humberside

ULTIMO METAR :
  • 261820Z AUTO 34016KT 9999 BKN020/// BKN025/// OVC039/// 12/08 Q1013

METARs OBSOLETI :
  • 261750Z AUTO 34018KT 9999 BKN022/// OVC039/// 12/08 Q1013
  • 261720Z AUTO 34019G30KT 9999 BKN023/// BKN029/// OVC035/// 12/08 Q1013
  • 261650Z AUTO 34016KT 9999 FEW017/// BKN022/// OVC038/// 13/09 Q1012
  • 261620Z AUTO 34017KT 9999 FEW018/// SCT023/// BKN030/// 12/09 Q1012
  • 261550Z AUTO 34015KT 9999 SCT018/// BKN023/// BKN029/// 12/09 Q1012

TAF TAF EGNJ
Valido dal 26 a 18 ore il 27 a 03 ore UTC


261655Z 2618/2703 31014KT 9999 FEW020 SCT025
TEMPO 2618/2703 35017G28KT
ATIS : +44 1652 682 020



MetMap, La meteo Aeronautica in un colpo d'occhio ! - Copyright ORBIFLY Dicembre 2007 - Disclaimer

ORBIFLY MET'MAP TEAM :

Programmazione e sviluppo : Alexandra Zaïnal
Concezione : Baudouin d'Aumeries
Aiuto per la programmazione : Marc-Olivier Méhu
Supporto tecnico e logistico : Manuel Goepfert
Aiuto per la traduzione : Arnaldo La Scala

Contatto : metmap@orbifly.com




FONTI E CREDITI :

   NOAA